• Join FlightAware (Why Join?)
  • Login
  • US Flag 
11:55AM EDT


 

Airport Tracker/Info


-or-


 

Live Flight TrackerFlight Track Log ✈ EJA982 ✈ 09-Jun-2013 ✈ KOMA - KLBF

Flight Track Log - Related Links

Times and Time Zones

All times are in EDT time to prevent confusion due to time zone crossing. See the EJA982 flight status page for this flight to view local times or setup timezone preferences in your user account.

Time Position Orientation Groundspeed Altitude Reporting Facility
EDT Latitude Longitude Course Direction KTS MPH feet Rate Location/Type
09:24AM 41.3147 -95.9061 323° Northwest 180 207 1,700  Level Minneapolis Center
09:25AM 41.3642 -95.9561 323° Northwest 186 214 3,800 1,800 Climbing Minneapolis Center
09:26AM 41.3694 -96.0100 277° West 225 259 5,200 2,820 Climbing Minneapolis Center
09:27AM 41.3689 -96.1031 270° West 252 290 8,600 2,760 Climbing Minneapolis Center
09:28AM 41.3706 -96.2064 271° West 273 314 10,900 1,800 Climbing Minneapolis Center
09:29AM 41.3703 -96.3308 270° West 322 371 12,400 1,680 Climbing Minneapolis Center
09:30AM 41.3725 -96.4617 271° West 347 399 14,400 1,740 Climbing Minneapolis Center
09:31AM 41.3739 -96.5942 271° West 356 410 16,000 1,740 Climbing Minneapolis Center
09:32AM 41.3750 -96.7594 271° West 369 425 18,000 2,040 Climbing Minneapolis Center
09:33AM 41.3761 -96.9028 271° West 382 440 20,200 1,920 Climbing Minneapolis Center
09:34AM 41.3761 -97.0492 270° West 392 451 22,000 1,740 Climbing Minneapolis Center
09:35AM 41.3775 -97.2019 271° West 407 468 23,800 960 Climbing Minneapolis Center
09:36AM 41.3781 -97.3583 270° West 418 481 24,000 60 Climbing Minneapolis Center
09:37AM 41.3719 -97.5189 267° West 431 496 24,000  Level Minneapolis Center
09:38AM 41.3608 -97.6817 265° West 440 506 24,000  Level Minneapolis Center
09:39AM 41.3503 -97.8403 265° West 434 499 24,000  Level Minneapolis Center
09:40AM 41.3403 -97.9950 265° West 425 489 24,000  Level Minneapolis Center
09:41AM 41.3286 -98.1597 265° West 419 482 24,000  Level Minneapolis Center
09:42AM 41.3181 -98.3111 265° West 415 478 24,000  Level Minneapolis Center
09:43AM 41.3067 -98.4831 265° West 413 475 24,000  Level Minneapolis Center
09:44AM 41.2961 -98.6342 265° West 413 475 24,000  Level Minneapolis Center
09:45AM 41.2853 -98.7839 265° West 411 473 24,000  Level Minneapolis Center
09:46AM 41.2733 -98.9347 264° West 410 472 24,000  Level Minneapolis Center
09:46AM 41.2694 -98.9933 265° West 412 474 24,000  Level Denver Center
09:47AM 41.2575 -99.1467 264° West 410 472 24,000 -420 Level Denver Center
09:48AM 41.2394 -99.2931 261° West 406 467 23,200 -1,440 Descending Denver Center
09:49AM 41.2289 -99.3822 261° West 407 468 21,700 -2,220 Descending Minneapolis Center
09:50AM 41.2108 -99.5253 261° West 401 461 19,600 -2,280 Descending Minneapolis Center
09:51AM 41.1886 -99.6872 260° West 386 444 17,100 -2,160 Descending Minneapolis Center
09:51AM 41.1831 -99.7244 259° West 371 427 16,600 -1,560 Descending Denver Center
09:52AM 41.1692 -99.8300 260° West 366 421 15,000 -1,860 Descending Denver Center
09:53AM 41.1483 -99.9936 260° West 356 410 12,800 -1,920 Descending Denver Center
09:54AM 41.1328 -100.1028 259° West 326 375 11,200 -1,680 Descending Denver Center
09:56AM 41.1175 -100.2133 260° West 282 325 9,400 -1,620 Descending Denver Center
09:57AM 41.1056 -100.3044 260° West 268 308 8,000 -1,380 Descending Denver Center